createdAt,value
2023-01-12T00:49:35.164Z,1007.20
2023-01-12T00:50:35.140Z,1007.22
2023-01-12T00:52:39.150Z,1007.14
2023-01-12T00:53:39.107Z,1007.24
2023-01-12T00:55:43.711Z,1007.22
2023-01-12T00:56:43.302Z,1007.17
2023-01-12T00:58:47.271Z,1007.17
2023-01-12T00:59:47.245Z,1007.15
2023-01-12T01:01:51.263Z,1007.08
2023-01-12T01:02:51.235Z,1007.09
2023-01-12T01:04:55.241Z,1007.00
2023-01-12T01:05:55.232Z,1007.03
2023-01-12T01:07:48.306Z,1006.94
2023-01-12T01:08:48.307Z,1006.89
2023-01-12T01:09:48.303Z,1006.86
2023-01-12T01:10:48.279Z,1006.90
2023-01-12T01:11:48.280Z,1006.99
2023-01-12T01:12:48.284Z,1007.00
2023-01-12T01:13:48.266Z,1007.10
2023-01-12T01:14:48.289Z,1007.12
2023-01-12T01:15:48.263Z,1007.05
2023-01-12T01:16:48.238Z,1007.01
2023-01-12T01:17:48.240Z,1007.02
2023-01-12T01:18:48.243Z,1007.01
2023-01-12T01:19:48.219Z,1007.01
2023-01-12T01:20:48.261Z,1007.04
2023-01-12T01:21:48.204Z,1007.07
2023-01-12T01:22:48.193Z,1007.09
2023-01-12T01:23:48.213Z,1007.09
2023-01-12T01:24:48.216Z,1007.10
2023-01-12T01:25:48.174Z,1007.10
2023-01-12T01:26:48.159Z,1007.06
2023-01-12T01:27:48.156Z,1007.09
2023-01-12T01:28:48.186Z,1007.08
2023-01-12T01:29:48.147Z,1007.07
2023-01-12T01:30:48.142Z,1007.03
2023-01-12T01:31:48.201Z,1007.01
2023-01-12T01:32:48.119Z,1006.93
2023-01-12T01:33:48.112Z,1006.90
2023-01-12T01:34:48.121Z,1006.88
2023-01-12T01:35:48.117Z,1006.81
2023-01-12T01:36:48.120Z,1006.76
2023-01-12T01:37:48.086Z,1006.82
2023-01-12T01:38:48.079Z,1006.75
2023-01-12T01:39:48.070Z,1006.72
2023-01-12T01:40:48.064Z,1006.71
2023-01-12T01:41:48.085Z,1006.67
2023-01-12T01:42:48.063Z,1006.75
2023-01-12T01:43:48.049Z,1006.68
2023-01-12T01:44:48.027Z,1006.70
2023-01-12T01:45:48.030Z,1006.67
2023-01-12T01:46:48.053Z,1006.64
2023-01-12T01:47:48.009Z,1006.67
2023-01-12T01:48:48.003Z,1006.67
2023-01-12T01:49:47.998Z,1006.64
2023-01-12T01:50:47.988Z,1006.57
2023-01-12T01:51:47.985Z,1006.53
2023-01-12T01:52:47.987Z,1006.59
2023-01-12T01:53:47.974Z,1006.59
2023-01-12T01:54:47.956Z,1006.64
2023-01-12T01:55:47.950Z,1006.67
2023-01-12T01:56:47.948Z,1006.63
2023-01-12T01:57:47.954Z,1006.64
2023-01-12T01:58:47.919Z,1006.66
2023-01-12T01:59:47.942Z,1006.67
2023-01-12T02:00:47.929Z,1006.68
2023-01-12T02:01:47.973Z,1006.59
2023-01-12T02:02:47.975Z,1006.58
2023-01-12T02:03:47.888Z,1006.55
2023-01-12T02:04:47.940Z,1006.62
2023-01-12T02:05:47.883Z,1006.55
2023-01-12T02:06:47.861Z,1006.61
2023-01-12T02:07:47.866Z,1006.65
2023-01-12T02:08:47.853Z,1006.64
2023-01-12T02:09:47.846Z,1006.64
2023-01-12T02:10:47.846Z,1006.59
2023-01-12T02:11:47.841Z,1006.49
2023-01-12T02:12:47.817Z,1006.48
2023-01-12T02:13:47.815Z,1006.41
2023-01-12T02:14:47.806Z,1006.39
2023-01-12T02:15:47.861Z,1006.32
2023-01-12T02:16:47.792Z,1006.25
2023-01-12T02:17:47.782Z,1006.25
2023-01-12T02:18:47.792Z,1006.28
2023-01-12T02:19:47.775Z,1006.28
2023-01-12T02:20:47.766Z,1006.32
2023-01-12T02:21:47.756Z,1006.32
2023-01-12T02:22:47.767Z,1006.27
2023-01-12T02:23:47.739Z,1006.31
2023-01-12T02:24:47.792Z,1006.30
2023-01-12T02:25:47.748Z,1006.32
2023-01-12T02:26:47.737Z,1006.32
2023-01-12T02:27:47.734Z,1006.34
2023-01-12T02:28:47.702Z,1006.32
2023-01-12T02:29:47.700Z,1006.38
2023-01-12T02:30:47.684Z,1006.29
2023-01-12T02:31:47.688Z,1006.35
2023-01-12T02:32:47.674Z,1006.38
2023-01-12T02:33:47.686Z,1006.29
2023-01-12T02:34:47.699Z,1006.35
2023-01-12T02:35:47.650Z,1006.33
2023-01-12T02:36:47.648Z,1006.33
2023-01-12T02:37:47.637Z,1006.22
2023-01-12T02:38:47.634Z,1006.16
2023-01-12T02:39:47.623Z,1006.19
2023-01-12T02:40:47.625Z,1006.16
2023-01-12T02:41:47.629Z,1006.13
2023-01-12T02:42:47.588Z,1006.16
2023-01-12T02:43:47.592Z,1006.16
2023-01-12T02:44:47.579Z,1006.14
2023-01-12T02:45:47.591Z,1006.15
2023-01-12T02:46:47.631Z,1006.10
2023-01-12T02:47:47.559Z,1006.19
2023-01-12T02:48:47.558Z,1006.09
2023-01-12T02:49:47.545Z,1006.14
2023-01-12T02:50:47.563Z,1006.09
2023-01-12T02:51:47.539Z,1006.11
2023-01-12T02:52:47.519Z,1006.15
2023-01-12T02:53:47.518Z,1006.12
2023-01-12T02:54:47.521Z,1006.01
2023-01-12T02:55:47.520Z,1006.07
2023-01-12T02:56:47.524Z,1005.98
2023-01-12T02:57:47.487Z,1006.00
2023-01-12T02:58:47.483Z,1005.99
2023-01-12T02:59:47.472Z,1005.95
2023-01-12T03:00:47.547Z,1005.90
2023-01-12T03:01:47.530Z,1005.90
2023-01-12T03:02:47.499Z,1005.92
2023-01-12T03:03:47.467Z,1005.93
2023-01-12T03:04:47.436Z,1005.91
2023-01-12T03:05:47.437Z,1005.90
2023-01-12T03:06:47.427Z,1005.90
2023-01-12T03:07:47.438Z,1005.88
2023-01-12T03:08:47.416Z,1005.84
2023-01-12T03:09:47.425Z,1005.92
2023-01-12T03:10:47.390Z,1005.89
2023-01-12T03:11:47.380Z,1005.83
2023-01-12T03:12:47.387Z,1005.84
2023-01-12T03:13:47.380Z,1005.85
2023-01-12T03:14:47.360Z,1005.80
2023-01-12T03:15:47.415Z,1005.79
2023-01-12T03:16:47.361Z,1005.79
2023-01-12T03:17:47.404Z,1005.80
2023-01-12T03:18:47.334Z,1005.81
2023-01-12T03:19:47.336Z,1005.79
2023-01-12T03:20:47.311Z,1005.76
2023-01-12T03:21:47.327Z,1005.82
2023-01-12T03:22:47.331Z,1005.83
2023-01-12T03:23:47.320Z,1005.83
2023-01-12T03:24:47.308Z,1005.84
2023-01-12T03:25:47.287Z,1005.87
2023-01-12T03:26:47.279Z,1005.92
2023-01-12T03:27:47.292Z,1005.77
2023-01-12T03:28:47.275Z,1005.79
2023-01-12T03:29:47.276Z,1005.80
2023-01-12T03:30:47.249Z,1005.80
2023-01-12T03:31:47.304Z,1005.81
2023-01-12T03:32:47.229Z,1005.80
2023-01-12T03:33:47.311Z,1005.81
2023-01-12T03:34:47.271Z,1005.78
2023-01-12T03:35:47.214Z,1005.78
2023-01-12T03:36:47.213Z,1005.78
2023-01-12T03:37:47.203Z,1005.80
2023-01-12T03:38:47.206Z,1005.84
2023-01-12T03:39:47.181Z,1005.85
2023-01-12T03:40:47.184Z,1005.84
2023-01-12T03:41:47.203Z,1005.81
2023-01-12T03:42:47.171Z,1005.78
2023-01-12T03:43:47.163Z,1005.84
2023-01-12T03:44:47.154Z,1005.83
2023-01-12T03:45:47.164Z,1005.80
2023-01-12T03:46:47.215Z,1005.81
2023-01-12T03:47:47.127Z,1005.75
2023-01-12T03:48:47.114Z,1005.73
2023-01-12T03:49:47.105Z,1005.77
2023-01-12T03:50:47.107Z,1005.79
2023-01-12T03:51:47.107Z,1005.74
2023-01-12T03:52:47.096Z,1005.73
2023-01-12T03:53:47.101Z,1005.85
2023-01-12T03:54:47.081Z,1005.74
2023-01-12T03:55:47.065Z,1005.73
2023-01-12T03:56:47.070Z,1005.76
2023-01-12T03:57:47.051Z,1005.80
2023-01-12T03:58:47.048Z,1005.74
2023-01-12T03:59:47.057Z,1005.75
2023-01-12T04:00:47.091Z,1005.74
2023-01-12T04:01:47.125Z,1005.68
2023-01-12T04:02:47.015Z,1005.71
2023-01-12T04:03:47.016Z,1005.72
2023-01-12T04:04:46.994Z,1005.67
2023-01-12T04:05:47.002Z,1005.67
2023-01-12T04:06:46.986Z,1005.64
2023-01-12T04:07:46.986Z,1005.67
2023-01-12T04:08:46.970Z,1005.68
2023-01-12T04:09:46.975Z,1005.68
2023-01-12T04:10:47.077Z,1005.66
2023-01-12T04:11:46.947Z,1005.61
2023-01-12T04:12:46.956Z,1005.63
2023-01-12T04:13:46.946Z,1005.56
2023-01-12T04:14:48.170Z,1005.59
2023-01-12T04:15:46.947Z,1005.60
2023-01-12T04:16:46.962Z,1005.56
2023-01-12T04:17:46.915Z,1005.48
2023-01-12T04:18:46.896Z,1005.49
2023-01-12T04:19:46.895Z,1005.44
2023-01-12T04:20:46.894Z,1005.49
2023-01-12T04:21:46.882Z,1005.44
2023-01-12T04:22:46.883Z,1005.53
2023-01-12T04:23:46.864Z,1005.51
2023-01-12T04:24:46.866Z,1005.49
2023-01-12T04:25:46.972Z,1005.56
2023-01-12T04:26:46.881Z,1005.48
2023-01-12T04:27:46.847Z,1005.46
2023-01-12T04:28:46.860Z,1005.45
2023-01-12T04:29:46.828Z,1005.40
2023-01-12T04:30:46.818Z,1005.36
2023-01-12T04:31:46.889Z,1005.36
2023-01-12T04:32:46.806Z,1005.34
2023-01-12T04:33:46.793Z,1005.32
2023-01-12T04:34:46.795Z,1005.36
2023-01-12T04:35:46.780Z,1005.30
2023-01-12T04:36:46.777Z,1005.37
2023-01-12T04:37:46.761Z,1005.35
2023-01-12T04:38:46.754Z,1005.36
2023-01-12T04:39:46.747Z,1005.31
2023-01-12T04:40:46.757Z,1005.35
2023-01-12T04:41:46.751Z,1005.34
2023-01-12T04:42:46.734Z,1005.33
2023-01-12T04:43:46.729Z,1005.28
2023-01-12T04:44:46.710Z,1005.33
2023-01-12T04:45:46.801Z,1005.26
2023-01-12T04:46:46.699Z,1005.31
2023-01-12T04:47:46.699Z,1005.26
2023-01-12T04:48:46.695Z,1005.24
2023-01-12T04:49:46.685Z,1005.21
2023-01-12T04:50:46.755Z,1005.22
2023-01-12T04:51:46.676Z,1005.17
2023-01-12T04:52:46.663Z,1005.14
2023-01-12T04:53:46.644Z,1005.16
2023-01-12T04:54:46.652Z,1005.16
2023-01-12T04:55:46.640Z,1005.10
2023-01-12T04:56:46.641Z,1005.09
2023-01-12T04:57:46.614Z,1005.17
2023-01-12T04:58:46.622Z,1005.15
2023-01-12T04:59:46.611Z,1005.16
2023-01-12T05:00:46.596Z,1005.19
2023-01-12T05:01:46.611Z,1005.10
2023-01-12T05:02:46.589Z,1005.12
2023-01-12T05:03:46.699Z,1005.06
2023-01-12T05:04:46.586Z,1005.07
2023-01-12T05:05:46.565Z,1005.10
2023-01-12T05:06:46.572Z,1005.13
2023-01-12T05:07:46.562Z,1005.19
2023-01-12T05:08:46.582Z,1005.11
2023-01-12T05:09:46.542Z,1005.14
2023-01-12T05:10:46.534Z,1005.10
2023-01-12T05:11:46.521Z,1005.17
2023-01-12T05:12:46.544Z,1005.10
2023-01-12T05:13:46.512Z,1005.10
2023-01-12T05:14:46.521Z,1005.08
2023-01-12T05:15:46.502Z,1005.07
2023-01-12T05:16:46.597Z,1005.10
2023-01-12T05:17:46.519Z,1005.06
2023-01-12T05:18:46.494Z,1005.07
2023-01-12T05:19:46.469Z,1005.03
2023-01-12T05:20:46.475Z,1005.00
2023-01-12T05:21:46.452Z,1005.03
2023-01-12T05:22:46.452Z,1004.98
2023-01-12T05:23:46.446Z,1004.92
2023-01-12T05:24:46.437Z,1004.88
2023-01-12T05:25:46.442Z,1004.87
2023-01-12T05:26:46.416Z,1004.95
2023-01-12T05:27:46.416Z,1004.88
2023-01-12T05:28:46.414Z,1004.88
2023-01-12T05:29:46.407Z,1004.86
2023-01-12T05:30:46.408Z,1004.90
2023-01-12T05:31:46.375Z,1004.85
2023-01-12T05:32:46.375Z,1004.91
2023-01-12T05:33:46.375Z,1005.00
2023-01-12T05:34:46.370Z,1004.88
2023-01-12T05:35:46.370Z,1004.85
2023-01-12T05:36:46.355Z,1004.86
2023-01-12T05:37:46.336Z,1004.98
2023-01-12T05:38:46.345Z,1004.94
2023-01-12T05:39:46.332Z,1004.97
2023-01-12T05:40:46.325Z,1005.02
2023-01-12T05:41:46.317Z,1005.02
2023-01-12T05:42:46.315Z,1005.01
2023-01-12T05:43:46.309Z,1004.99
2023-01-12T05:44:46.321Z,1004.95
2023-01-12T05:45:46.357Z,1004.97
2023-01-12T05:46:46.295Z,1004.97
2023-01-12T05:47:46.280Z,1004.90
2023-01-12T05:48:46.270Z,1004.90
2023-01-12T05:49:46.255Z,1004.98
2023-01-12T05:50:46.283Z,1004.96
2023-01-12T05:51:46.282Z,1004.97
2023-01-12T05:52:46.244Z,1005.04
2023-01-12T05:53:46.233Z,1005.00
2023-01-12T05:54:46.240Z,1005.00
2023-01-12T05:55:46.219Z,1004.99
2023-01-12T05:56:47.127Z,1004.96
2023-01-12T05:57:46.221Z,1004.91
2023-01-12T05:58:46.249Z,1004.91
2023-01-12T05:59:46.200Z,1004.90
2023-01-12T06:00:46.195Z,1004.99
2023-01-12T06:01:46.174Z,1004.97
2023-01-12T06:02:46.177Z,1004.94
2023-01-12T06:03:46.170Z,1004.97
2023-01-12T06:04:46.253Z,1004.93
2023-01-12T06:05:46.165Z,1004.93
2023-01-12T06:06:46.151Z,1004.92
2023-01-12T06:07:46.139Z,1004.92
2023-01-12T06:08:46.193Z,1004.86
2023-01-12T06:09:46.120Z,1004.92
2023-01-12T06:10:46.115Z,1004.88
2023-01-12T06:11:46.129Z,1004.85
2023-01-12T06:12:46.126Z,1004.87
2023-01-12T06:13:46.096Z,1004.87
2023-01-12T06:14:46.122Z,1004.91
2023-01-12T06:15:46.164Z,1004.92
2023-01-12T06:16:46.072Z,1004.91
2023-01-12T06:17:46.072Z,1004.83
2023-01-12T06:18:46.071Z,1004.83
2023-01-12T06:19:46.055Z,1004.86
2023-01-12T06:20:46.054Z,1004.88
2023-01-12T06:21:46.054Z,1004.83
2023-01-12T06:22:46.046Z,1004.80
2023-01-12T06:23:46.035Z,1004.78
2023-01-12T06:24:46.100Z,1004.82
2023-01-12T06:25:46.024Z,1004.84
2023-01-12T06:26:46.009Z,1004.86
2023-01-12T06:27:46.000Z,1004.88
2023-01-12T06:28:46.018Z,1004.84
2023-01-12T06:29:45.989Z,1004.84
2023-01-12T06:30:46.023Z,1004.89
2023-01-12T06:31:45.976Z,1004.79
2023-01-12T06:32:45.969Z,1004.83
2023-01-12T06:33:45.971Z,1004.85
2023-01-12T06:34:45.965Z,1004.81
2023-01-12T06:35:45.976Z,1004.80
2023-01-12T06:36:45.946Z,1004.83
2023-01-12T06:37:45.996Z,1004.90
2023-01-12T06:38:45.948Z,1004.88
2023-01-12T06:39:45.933Z,1004.82
2023-01-12T06:40:45.925Z,1004.82
2023-01-12T06:41:45.909Z,1004.83
2023-01-12T06:42:45.925Z,1004.84
2023-01-12T06:43:45.905Z,1004.85
2023-01-12T06:44:47.667Z,1004.78
2023-01-12T06:45:45.892Z,1004.77
2023-01-12T06:46:45.876Z,1004.74
2023-01-12T06:47:45.865Z,1004.73
2023-01-12T06:48:45.863Z,1004.74
2023-01-12T06:49:45.849Z,1004.77
2023-01-12T06:50:45.858Z,1004.72
2023-01-12T06:51:45.850Z,1004.61
2023-01-12T06:52:45.836Z,1004.62
2023-01-12T06:53:45.828Z,1004.69
2023-01-12T06:54:45.841Z,1004.61
2023-01-12T06:55:45.834Z,1004.64
2023-01-12T06:56:45.829Z,1004.61
2023-01-12T06:57:45.812Z,1004.62
2023-01-12T06:58:45.801Z,1004.66
2023-01-12T06:59:45.794Z,1004.74
2023-01-12T07:00:45.794Z,1004.68
2023-01-12T07:01:45.881Z,1004.66
2023-01-12T07:02:45.778Z,1004.65
2023-01-12T07:03:45.766Z,1004.59
2023-01-12T07:04:45.823Z,1004.66
2023-01-12T07:05:45.783Z,1004.66
2023-01-12T07:06:45.751Z,1004.61
2023-01-12T07:07:45.749Z,1004.63
2023-01-12T07:08:45.738Z,1004.62
2023-01-12T07:09:45.758Z,1004.57
2023-01-12T07:10:45.709Z,1004.63
2023-01-12T07:11:45.707Z,1004.64
2023-01-12T07:12:45.717Z,1004.62
2023-01-12T07:13:45.712Z,1004.58
2023-01-12T07:14:45.724Z,1004.58
2023-01-12T07:15:45.741Z,1004.55
2023-01-12T07:16:45.703Z,1004.52
2023-01-12T07:17:45.677Z,1004.53
2023-01-12T07:18:45.661Z,1004.50
2023-01-12T07:19:45.652Z,1004.50
2023-01-12T07:20:45.684Z,1004.52
2023-01-12T07:21:45.651Z,1004.48
2023-01-12T07:22:45.644Z,1004.51
2023-01-12T07:23:45.652Z,1004.47
2023-01-12T07:24:45.642Z,1004.44
2023-01-12T07:25:45.613Z,1004.45
2023-01-12T07:26:45.612Z,1004.42
2023-01-12T07:27:45.623Z,1004.43
2023-01-12T07:28:45.638Z,1004.42
2023-01-12T07:29:45.607Z,1004.43
2023-01-12T07:30:45.616Z,1004.38
2023-01-12T07:31:45.568Z,1004.37
2023-01-12T07:32:45.584Z,1004.38
2023-01-12T07:33:45.562Z,1004.41
2023-01-12T07:34:45.568Z,1004.41
2023-01-12T07:35:45.557Z,1004.41
2023-01-12T07:36:45.556Z,1004.43
2023-01-12T07:37:45.563Z,1004.36
2023-01-12T07:38:45.565Z,1004.36
2023-01-12T07:39:45.528Z,1004.35
2023-01-12T07:40:45.523Z,1004.35
2023-01-12T07:41:45.522Z,1004.32
2023-01-12T07:42:45.503Z,1004.25
2023-01-12T07:43:45.498Z,1004.30
2023-01-12T07:44:45.509Z,1004.26
2023-01-12T07:45:45.492Z,1004.29
2023-01-12T07:46:45.554Z,1004.22
2023-01-12T07:47:45.479Z,1004.22
2023-01-12T07:48:45.467Z,1004.23
2023-01-12T07:49:45.469Z,1004.22
2023-01-12T07:50:45.452Z,1004.20
2023-01-12T07:51:45.453Z,1004.20
2023-01-12T07:52:45.453Z,1004.19
2023-01-12T07:53:45.465Z,1004.17
2023-01-12T07:54:45.439Z,1004.14
2023-01-12T07:55:45.450Z,1004.15
2023-01-12T07:56:45.434Z,1004.16
2023-01-12T07:57:45.446Z,1004.18
2023-01-12T07:58:45.403Z,1004.16
2023-01-12T07:59:45.399Z,1004.13
2023-01-12T08:00:45.552Z,1004.08
2023-01-12T08:01:45.424Z,1004.10
2023-01-12T08:02:45.387Z,1004.02
2023-01-12T08:03:45.376Z,1004.03
2023-01-12T08:04:45.369Z,1004.02
2023-01-12T08:05:45.468Z,1004.06
2023-01-12T08:06:45.355Z,1003.99
2023-01-12T08:07:45.358Z,1004.04
2023-01-12T08:08:45.356Z,1004.03
2023-01-12T08:09:45.352Z,1004.04
2023-01-12T08:10:45.364Z,1004.04
2023-01-12T08:11:45.322Z,1004.02
2023-01-12T08:12:45.319Z,1004.02
2023-01-12T08:13:45.330Z,1004.04
2023-01-12T08:14:45.302Z,1003.96
2023-01-12T08:15:45.299Z,1003.96
2023-01-12T08:16:45.293Z,1004.01
2023-01-12T08:17:45.292Z,1003.95
2023-01-12T08:18:45.288Z,1003.95
2023-01-12T08:19:45.272Z,1003.92
2023-01-12T08:20:45.269Z,1003.94
2023-01-12T08:21:45.260Z,1003.92
2023-01-12T08:22:45.250Z,1003.97
2023-01-12T08:23:45.241Z,1003.93
2023-01-12T08:24:45.243Z,1003.92
2023-01-12T08:25:45.222Z,1003.92
2023-01-12T08:26:45.233Z,1003.94
2023-01-12T08:27:45.226Z,1003.86
2023-01-12T08:28:45.207Z,1003.89
2023-01-12T08:29:45.212Z,1003.88
2023-01-12T08:30:45.208Z,1003.87
2023-01-12T08:31:45.191Z,1003.87
2023-01-12T08:32:45.201Z,1003.88
2023-01-12T08:33:45.190Z,1003.86
2023-01-12T08:34:45.182Z,1003.81
2023-01-12T08:35:45.172Z,1003.86
2023-01-12T08:36:45.214Z,1003.78
2023-01-12T08:37:45.159Z,1003.83
2023-01-12T08:38:45.161Z,1003.87
2023-01-12T08:39:45.153Z,1003.82
2023-01-12T08:40:45.139Z,1003.84
2023-01-12T08:41:45.161Z,1003.83
2023-01-12T08:42:45.129Z,1003.77
2023-01-12T08:43:45.137Z,1003.80
2023-01-12T08:44:45.144Z,1003.71
2023-01-12T08:45:45.108Z,1003.68
2023-01-12T08:46:45.239Z,1003.77
2023-01-12T08:47:45.105Z,1003.68
2023-01-12T08:48:45.104Z,1003.73
2023-01-12T08:49:45.107Z,1003.70
2023-01-12T08:50:45.098Z,1003.74
2023-01-12T08:51:45.084Z,1003.73
2023-01-12T08:52:45.067Z,1003.70
2023-01-12T08:53:45.068Z,1003.73
2023-01-12T08:54:45.043Z,1003.66
2023-01-12T08:55:45.047Z,1003.65
2023-01-12T08:56:45.079Z,1003.67
2023-01-12T08:57:45.038Z,1003.67
2023-01-12T08:58:45.024Z,1003.57
2023-01-12T08:59:45.024Z,1003.59
2023-01-12T09:00:45.107Z,1003.51
2023-01-12T09:01:45.130Z,1003.54
2023-01-12T09:02:45.079Z,1003.60
2023-01-12T09:03:45.020Z,1003.61
2023-01-12T09:04:45.020Z,1003.57
2023-01-12T09:05:44.987Z,1003.60
2023-01-12T09:06:45.010Z,1003.56
2023-01-12T09:07:45.006Z,1003.54
2023-01-12T09:08:44.963Z,1003.50
2023-01-12T09:09:44.971Z,1003.49
2023-01-12T09:10:44.976Z,1003.44
2023-01-12T09:11:44.966Z,1003.45
2023-01-12T09:12:44.947Z,1003.51
2023-01-12T09:13:44.934Z,1003.49
2023-01-12T09:14:44.941Z,1003.51
2023-01-12T09:15:56.480Z,1003.53
2023-01-12T09:16:44.973Z,1003.44
2023-01-12T09:17:44.932Z,1003.50
2023-01-12T09:18:44.903Z,1003.44
2023-01-12T09:19:44.903Z,1003.43
2023-01-12T09:20:44.894Z,1003.44
2023-01-12T09:21:44.978Z,1003.39
2023-01-12T09:22:44.885Z,1003.42
2023-01-12T09:23:44.937Z,1003.29
2023-01-12T09:24:44.875Z,1003.33
2023-01-12T09:25:44.889Z,1003.35
2023-01-12T09:26:44.859Z,1003.33
2023-01-12T09:27:44.878Z,1003.23
2023-01-12T09:28:44.851Z,1003.26
2023-01-12T09:29:44.846Z,1003.24
2023-01-12T09:30:44.849Z,1003.25
2023-01-12T09:31:44.899Z,1003.22
2023-01-12T09:32:44.829Z,1003.23
2023-01-12T09:33:44.842Z,1003.27
2023-01-12T09:34:44.818Z,1003.23
2023-01-12T09:35:44.807Z,1003.26
2023-01-12T09:36:45.011Z,1003.20
2023-01-12T09:37:44.850Z,1003.21
2023-01-12T09:38:44.795Z,1003.21
2023-01-12T09:39:44.821Z,1003.12
2023-01-12T09:40:44.777Z,1003.21
2023-01-12T09:41:44.784Z,1003.16
2023-01-12T09:42:44.776Z,1003.15
2023-01-12T09:43:44.784Z,1003.13
2023-01-12T09:44:44.779Z,1003.19
2023-01-12T09:45:44.835Z,1003.03
2023-01-12T09:46:44.749Z,1002.98
2023-01-12T09:47:44.752Z,1003.07
2023-01-12T09:48:44.778Z,1003.09
2023-01-12T09:49:44.817Z,1003.01
2023-01-12T09:50:44.733Z,1003.01
2023-01-12T09:51:44.775Z,1003.07
2023-01-12T09:52:44.783Z,1002.97
2023-01-12T09:53:47.334Z,1002.94
2023-01-12T09:54:44.701Z,1003.00
2023-01-12T09:55:44.716Z,1002.93
2023-01-12T09:56:44.684Z,1002.94
2023-01-12T09:57:44.691Z,1002.89
2023-01-12T09:58:44.686Z,1002.90
2023-01-12T09:59:44.678Z,1002.92
2023-01-12T10:00:44.664Z,1002.91
2023-01-12T10:01:44.769Z,1002.92
2023-01-12T10:02:44.788Z,1002.85
2023-01-12T10:03:44.645Z,1002.80
2023-01-12T10:04:44.645Z,1002.81
2023-01-12T10:05:44.641Z,1002.78
2023-01-12T10:06:44.634Z,1002.80
2023-01-12T10:07:44.648Z,1002.80
2023-01-12T10:08:44.638Z,1002.84
2023-01-12T10:09:44.673Z,1002.77
2023-01-12T10:10:44.612Z,1002.79
2023-01-12T10:11:44.624Z,1002.71
2023-01-12T10:12:44.604Z,1002.79
2023-01-12T10:13:44.588Z,1002.76
2023-01-12T10:14:44.595Z,1002.69
2023-01-12T10:15:44.580Z,1002.64
2023-01-12T10:16:44.655Z,1002.68
2023-01-12T10:17:51.331Z,1002.70
2023-01-12T10:18:47.364Z,1002.68
2023-01-12T10:19:46.912Z,1002.70
2023-01-12T10:20:44.553Z,1002.60
2023-01-12T10:21:44.566Z,1002.63
2023-01-12T10:22:44.545Z,1002.58
2023-01-12T10:23:44.616Z,1002.50
2023-01-12T10:24:44.663Z,1002.55
2023-01-12T10:25:44.531Z,1002.49
2023-01-12T10:26:44.537Z,1002.57
2023-01-12T10:27:44.580Z,1002.60
2023-01-12T10:28:44.562Z,1002.60
2023-01-12T10:29:44.510Z,1002.59
2023-01-12T10:30:44.503Z,1002.53
2023-01-12T10:31:44.537Z,1002.57
2023-01-12T10:32:44.491Z,1002.58
2023-01-12T10:33:44.495Z,1002.56
2023-01-12T10:34:44.487Z,1002.48
2023-01-12T10:35:44.501Z,1002.53
2023-01-12T10:36:44.498Z,1002.57
2023-01-12T10:37:44.478Z,1002.53
2023-01-12T10:38:44.461Z,1002.49
2023-01-12T10:39:44.516Z,1002.50
2023-01-12T10:40:44.446Z,1002.57
2023-01-12T10:41:44.466Z,1002.59
2023-01-12T10:42:44.439Z,1002.43
2023-01-12T10:43:44.450Z,1002.47
2023-01-12T10:44:44.508Z,1002.47
2023-01-12T10:45:44.470Z,1002.40
2023-01-12T10:46:44.439Z,1002.38
2023-01-12T10:47:44.425Z,1002.55
2023-01-12T10:48:44.417Z,1002.39
2023-01-12T10:49:44.427Z,1002.30
2023-01-12T10:50:44.394Z,1002.39
2023-01-12T10:51:44.393Z,1002.32
2023-01-12T10:52:44.383Z,1002.38
2023-01-12T10:53:44.388Z,1002.28
2023-01-12T10:54:44.376Z,1002.28
2023-01-12T10:55:44.395Z,1002.24
2023-01-12T10:56:44.374Z,1002.28
2023-01-12T10:57:44.363Z,1002.33
2023-01-12T10:58:45.704Z,1002.21
2023-01-12T10:59:44.376Z,1002.22
2023-01-12T11:00:44.344Z,1002.19
2023-01-12T11:01:44.478Z,1002.18
2023-01-12T11:02:44.352Z,1002.15
2023-01-12T11:03:44.342Z,1002.16
2023-01-12T11:04:44.333Z,1002.15
2023-01-12T11:05:44.319Z,1002.04
2023-01-12T11:06:44.337Z,1002.08
2023-01-12T11:07:44.352Z,1002.01
2023-01-12T11:08:44.433Z,1002.04
2023-01-12T11:09:44.294Z,1001.96
2023-01-12T11:10:44.298Z,1002.00
2023-01-12T11:11:44.303Z,1002.02
2023-01-12T11:12:44.280Z,1001.94
2023-01-12T11:13:44.279Z,1001.91
2023-01-12T11:14:44.284Z,1001.87
2023-01-12T11:15:44.317Z,1001.87
2023-01-12T11:16:44.295Z,1001.84
2023-01-12T11:17:44.266Z,1001.77
2023-01-12T11:18:44.240Z,1001.86
2023-01-12T11:19:44.259Z,1001.73
2023-01-12T11:20:44.252Z,1001.74
2023-01-12T11:21:44.230Z,1001.79
2023-01-12T11:22:44.234Z,1001.77
2023-01-12T11:23:44.239Z,1001.78
2023-01-12T11:24:44.204Z,1001.73
2023-01-12T11:25:44.207Z,1001.69
2023-01-12T11:26:44.194Z,1001.68
2023-01-12T11:27:44.194Z,1001.68
2023-01-12T11:28:44.207Z,1001.58
2023-01-12T11:29:44.194Z,1001.65
2023-01-12T11:30:44.285Z,1001.70
2023-01-12T11:31:44.190Z,1001.70
2023-01-12T11:32:44.353Z,1001.71
2023-01-12T11:33:44.159Z,1001.69
2023-01-12T11:34:44.156Z,1001.64
2023-01-12T11:35:44.150Z,1001.55
2023-01-12T11:36:44.143Z,1001.58
2023-01-12T11:37:44.141Z,1001.58
2023-01-12T11:38:44.157Z,1001.52
2023-01-12T11:39:44.123Z,1001.55
2023-01-12T11:40:44.150Z,1001.58
2023-01-12T11:41:44.115Z,1001.53
2023-01-12T11:42:44.112Z,1001.58
2023-01-12T11:43:44.112Z,1001.44
2023-01-12T11:44:44.107Z,1001.48
2023-01-12T11:45:44.151Z,1001.44
2023-01-12T11:46:44.101Z,1001.40
2023-01-12T11:47:44.084Z,1001.45
2023-01-12T11:48:44.122Z,1001.52
2023-01-12T11:49:44.068Z,1001.50
2023-01-12T11:50:44.063Z,1001.40
2023-01-12T11:51:44.070Z,1001.48
2023-01-12T11:52:44.050Z,1001.49
2023-01-12T11:53:44.049Z,1001.43
2023-01-12T11:54:44.056Z,1001.42
2023-01-12T11:55:44.086Z,1001.40
2023-01-12T11:56:44.023Z,1001.40
2023-01-12T11:57:44.040Z,1001.44
2023-01-12T11:58:44.018Z,1001.36
2023-01-12T11:59:44.014Z,1001.37
2023-01-12T12:00:44.018Z,1001.35
2023-01-12T12:01:44.008Z,1001.40
2023-01-12T12:02:44.068Z,1001.43
2023-01-12T12:03:43.998Z,1001.48
2023-01-12T12:04:43.982Z,1001.35
2023-01-12T12:05:43.978Z,1001.37
2023-01-12T12:06:43.976Z,1001.40
2023-01-12T12:07:43.962Z,1001.41
2023-01-12T12:08:43.969Z,1001.29
2023-01-12T12:09:43.981Z,1001.35
2023-01-12T12:10:43.946Z,1001.25
2023-01-12T12:11:43.941Z,1001.35
2023-01-12T12:12:43.943Z,1001.37
2023-01-12T12:13:43.955Z,1001.36
2023-01-12T12:14:43.940Z,1001.34
2023-01-12T12:15:43.963Z,1001.31
2023-01-12T12:16:43.915Z,1001.34
2023-01-12T12:17:44.003Z,1001.43
2023-01-12T12:18:43.930Z,1001.40
2023-01-12T12:19:43.932Z,1001.30
2023-01-12T12:20:43.883Z,1001.24
2023-01-12T12:21:43.912Z,1001.37
2023-01-12T12:22:43.890Z,1001.37
2023-01-12T12:23:43.888Z,1001.36
2023-01-12T12:24:43.869Z,1001.35
2023-01-12T12:25:43.880Z,1001.36
2023-01-12T12:26:43.875Z,1001.34
2023-01-12T12:27:43.850Z,1001.31
2023-01-12T12:28:43.882Z,1001.25
2023-01-12T12:29:43.856Z,1001.30
2023-01-12T12:30:43.893Z,1001.31
2023-01-12T12:31:43.827Z,1001.34
2023-01-12T12:32:43.846Z,1001.36
2023-01-12T12:33:43.819Z,1001.33
2023-01-12T12:34:43.822Z,1001.19
2023-01-12T12:35:43.841Z,1001.17
2023-01-12T12:36:43.803Z,1001.24
2023-01-12T12:37:43.786Z,1001.29
2023-01-12T12:38:43.798Z,1001.25
2023-01-12T12:39:43.793Z,1001.30
2023-01-12T12:40:43.779Z,1001.26
2023-01-12T12:41:43.766Z,1001.38
2023-01-12T12:42:43.796Z,1001.35
2023-01-12T12:43:43.777Z,1001.28
2023-01-12T12:44:43.758Z,1001.28
2023-01-12T12:45:43.760Z,1001.27
2023-01-12T12:46:43.751Z,1001.14
2023-01-12T12:47:43.750Z,1001.21
2023-01-12T12:48:43.750Z,1001.14
2023-01-12T12:49:43.725Z,1001.20
2023-01-12T12:50:43.762Z,1001.18
2023-01-12T12:51:43.723Z,1001.23
2023-01-12T12:52:43.724Z,1001.22
2023-01-12T12:53:43.718Z,1001.23
2023-01-12T12:54:43.704Z,1001.29
2023-01-12T12:55:43.696Z,1001.26
2023-01-12T12:56:43.708Z,1001.28
2023-01-12T12:57:43.690Z,1001.26
2023-01-12T12:58:43.698Z,1001.24
2023-01-12T12:59:43.685Z,1001.18
2023-01-12T13:00:43.748Z,1001.23